sensor_id;sensor_type;location;lat;lon;timestamp;P1;durP1;ratioP1;P2;durP2;ratioP2
10801;SDS011;5453;50.852;7.102;2022-11-12T00:00:16;4.60;;;2.40;;
10801;SDS011;5453;50.852;7.102;2022-11-12T00:03:07;6.03;;;2.83;;
10801;SDS011;5453;50.852;7.102;2022-11-12T00:05:58;5.43;;;2.58;;
10801;SDS011;5453;50.852;7.102;2022-11-12T00:08:50;4.85;;;2.50;;
10801;SDS011;5453;50.852;7.102;2022-11-12T00:11:40;7.03;;;3.10;;
10801;SDS011;5453;50.852;7.102;2022-11-12T00:14:31;5.78;;;3.10;;
10801;SDS011;5453;50.852;7.102;2022-11-12T00:17:21;6.45;;;3.28;;
10801;SDS011;5453;50.852;7.102;2022-11-12T00:20:12;7.15;;;3.40;;
10801;SDS011;5453;50.852;7.102;2022-11-12T00:23:03;8.48;;;3.92;;
10801;SDS011;5453;50.852;7.102;2022-11-12T00:25:59;8.90;;;3.67;;
10801;SDS011;5453;50.852;7.102;2022-11-12T00:28:50;7.22;;;3.92;;
10801;SDS011;5453;50.852;7.102;2022-11-12T00:31:41;8.82;;;3.22;;
10801;SDS011;5453;50.852;7.102;2022-11-12T00:34:31;8.50;;;3.55;;
10801;SDS011;5453;50.852;7.102;2022-11-12T00:37:22;7.50;;;3.65;;
10801;SDS011;5453;50.852;7.102;2022-11-12T00:40:13;6.55;;;3.40;;
10801;SDS011;5453;50.852;7.102;2022-11-12T00:43:05;7.15;;;3.45;;
10801;SDS011;5453;50.852;7.102;2022-11-12T00:45:56;6.53;;;3.20;;
10801;SDS011;5453;50.852;7.102;2022-11-12T00:48:47;7.45;;;3.38;;
10801;SDS011;5453;50.852;7.102;2022-11-12T00:51:37;7.80;;;3.53;;
10801;SDS011;5453;50.852;7.102;2022-11-12T00:54:28;7.03;;;3.75;;
10801;SDS011;5453;50.852;7.102;2022-11-12T00:57:18;5.85;;;2.80;;
10801;SDS011;5453;50.852;7.102;2022-11-12T01:00:13;4.32;;;2.83;;
10801;SDS011;5453;50.852;7.102;2022-11-12T01:03:05;4.93;;;2.50;;
10801;SDS011;5453;50.852;7.102;2022-11-12T01:06:00;4.78;;;2.53;;
10801;SDS011;5453;50.852;7.102;2022-11-12T01:08:53;4.85;;;2.17;;
10801;SDS011;5453;50.852;7.102;2022-11-12T01:11:44;3.75;;;2.40;;
10801;SDS011;5453;50.852;7.102;2022-11-12T01:14:35;4.88;;;2.20;;
10801;SDS011;5453;50.852;7.102;2022-11-12T01:17:27;3.80;;;2.28;;
10801;SDS011;5453;50.852;7.102;2022-11-12T01:20:18;5.22;;;2.40;;
10801;SDS011;5453;50.852;7.102;2022-11-12T01:23:09;3.72;;;2.47;;
10801;SDS011;5453;50.852;7.102;2022-11-12T01:26:02;5.15;;;2.30;;
10801;SDS011;5453;50.852;7.102;2022-11-12T01:28:54;4.82;;;2.80;;
10801;SDS011;5453;50.852;7.102;2022-11-12T01:31:45;5.07;;;2.72;;
10801;SDS011;5453;50.852;7.102;2022-11-12T01:34:37;6.50;;;3.05;;
10801;SDS011;5453;50.852;7.102;2022-11-12T01:37:27;6.07;;;2.63;;
10801;SDS011;5453;50.852;7.102;2022-11-12T01:40:18;4.57;;;2.80;;
10801;SDS011;5453;50.852;7.102;2022-11-12T01:43:10;5.13;;;2.97;;
10801;SDS011;5453;50.852;7.102;2022-11-12T01:46:02;6.22;;;3.03;;
10801;SDS011;5453;50.852;7.102;2022-11-12T01:49:02;6.28;;;2.63;;
10801;SDS011;5453;50.852;7.102;2022-11-12T01:51:57;6.32;;;2.38;;
10801;SDS011;5453;50.852;7.102;2022-11-12T01:55:02;4.25;;;2.22;;
10801;SDS011;5453;50.852;7.102;2022-11-12T01:57:58;5.18;;;2.55;;
10801;SDS011;5453;50.852;7.102;2022-11-12T02:00:53;5.32;;;2.90;;
10801;SDS011;5453;50.852;7.102;2022-11-12T02:03:45;6.18;;;2.88;;
10801;SDS011;5453;50.852;7.102;2022-11-12T02:06:35;6.07;;;3.08;;
10801;SDS011;5453;50.852;7.102;2022-11-12T02:09:29;6.55;;;3.00;;
10801;SDS011;5453;50.852;7.102;2022-11-12T02:12:20;6.10;;;3.15;;
10801;SDS011;5453;50.852;7.102;2022-11-12T02:15:40;6.05;;;3.40;;
10801;SDS011;5453;50.852;7.102;2022-11-12T02:18:31;6.00;;;2.85;;
10801;SDS011;5453;50.852;7.102;2022-11-12T02:21:23;5.15;;;2.60;;
10801;SDS011;5453;50.852;7.102;2022-11-12T02:24:31;7.57;;;2.85;;
10801;SDS011;5453;50.852;7.102;2022-11-12T02:27:24;5.75;;;2.65;;
10801;SDS011;5453;50.852;7.102;2022-11-12T02:30:14;6.47;;;2.85;;
10801;SDS011;5453;50.852;7.102;2022-11-12T02:33:05;4.95;;;3.10;;
10801;SDS011;5453;50.852;7.102;2022-11-12T02:35:56;7.10;;;3.17;;
10801;SDS011;5453;50.852;7.102;2022-11-12T02:38:48;6.20;;;3.20;;
10801;SDS011;5453;50.852;7.102;2022-11-12T02:41:38;7.03;;;3.10;;
10801;SDS011;5453;50.852;7.102;2022-11-12T02:44:29;7.47;;;3.03;;
10801;SDS011;5453;50.852;7.102;2022-11-12T02:47:20;5.65;;;3.13;;
10801;SDS011;5453;50.852;7.102;2022-11-12T02:50:11;4.68;;;2.53;;
10801;SDS011;5453;50.852;7.102;2022-11-12T02:53:02;4.75;;;2.45;;
10801;SDS011;5453;50.852;7.102;2022-11-12T02:55:54;6.20;;;2.30;;
10801;SDS011;5453;50.852;7.102;2022-11-12T02:58:45;5.38;;;2.72;;
10801;SDS011;5453;50.852;7.102;2022-11-12T03:01:35;5.28;;;2.50;;
10801;SDS011;5453;50.852;7.102;2022-11-12T03:04:26;5.13;;;2.47;;
10801;SDS011;5453;50.852;7.102;2022-11-12T03:07:16;4.43;;;2.45;;
10801;SDS011;5453;50.852;7.102;2022-11-12T03:10:07;5.10;;;2.40;;
10801;SDS011;5453;50.852;7.102;2022-11-12T03:13:00;3.33;;;2.08;;
10801;SDS011;5453;50.852;7.102;2022-11-12T03:15:57;5.55;;;2.47;;
10801;SDS011;5453;50.852;7.102;2022-11-12T03:18:49;4.85;;;2.50;;
10801;SDS011;5453;50.852;7.102;2022-11-12T03:21:39;4.93;;;2.50;;
10801;SDS011;5453;50.852;7.102;2022-11-12T03:24:30;4.15;;;2.28;;
10801;SDS011;5453;50.852;7.102;2022-11-12T03:27:20;4.50;;;2.25;;
10801;SDS011;5453;50.852;7.102;2022-11-12T03:30:12;5.80;;;2.47;;
10801;SDS011;5453;50.852;7.102;2022-11-12T03:33:03;4.53;;;2.33;;
10801;SDS011;5453;50.852;7.102;2022-11-12T03:35:56;4.60;;;2.42;;
10801;SDS011;5453;50.852;7.102;2022-11-12T03:38:46;4.15;;;2.00;;
10801;SDS011;5453;50.852;7.102;2022-11-12T03:41:37;5.85;;;2.53;;
10801;SDS011;5453;50.852;7.102;2022-11-12T03:44:27;7.18;;;2.97;;
10801;SDS011;5453;50.852;7.102;2022-11-12T03:47:19;4.78;;;2.50;;
10801;SDS011;5453;50.852;7.102;2022-11-12T03:50:10;6.40;;;2.53;;
10801;SDS011;5453;50.852;7.102;2022-11-12T03:53:01;3.85;;;2.70;;
10801;SDS011;5453;50.852;7.102;2022-11-12T03:55:52;3.38;;;2.28;;
10801;SDS011;5453;50.852;7.102;2022-11-12T03:58:42;4.97;;;2.40;;
10801;SDS011;5453;50.852;7.102;2022-11-12T04:01:33;6.65;;;2.70;;
10801;SDS011;5453;50.852;7.102;2022-11-12T04:04:24;4.88;;;2.53;;
10801;SDS011;5453;50.852;7.102;2022-11-12T04:07:35;4.57;;;2.70;;
10801;SDS011;5453;50.852;7.102;2022-11-12T04:10:44;4.13;;;2.38;;
10801;SDS011;5453;50.852;7.102;2022-11-12T04:13:35;4.97;;;3.10;;
10801;SDS011;5453;50.852;7.102;2022-11-12T04:16:26;6.93;;;3.47;;
10801;SDS011;5453;50.852;7.102;2022-11-12T04:19:36;6.13;;;3.20;;
10801;SDS011;5453;50.852;7.102;2022-11-12T04:22:44;5.95;;;3.08;;
10801;SDS011;5453;50.852;7.102;2022-11-12T04:25:34;5.88;;;2.85;;
10801;SDS011;5453;50.852;7.102;2022-11-12T04:28:43;5.65;;;2.92;;
10801;SDS011;5453;50.852;7.102;2022-11-12T04:32:03;5.15;;;2.53;;
10801;SDS011;5453;50.852;7.102;2022-11-12T04:34:54;4.40;;;2.17;;
10801;SDS011;5453;50.852;7.102;2022-11-12T04:37:45;6.80;;;2.55;;
10801;SDS011;5453;50.852;7.102;2022-11-12T04:40:37;4.90;;;2.75;;
10801;SDS011;5453;50.852;7.102;2022-11-12T04:43:45;6.35;;;3.30;;
10801;SDS011;5453;50.852;7.102;2022-11-12T04:46:54;6.50;;;3.20;;
10801;SDS011;5453;50.852;7.102;2022-11-12T04:49:44;6.45;;;2.83;;
10801;SDS011;5453;50.852;7.102;2022-11-12T04:52:36;5.88;;;2.90;;
10801;SDS011;5453;50.852;7.102;2022-11-12T04:55:26;3.55;;;2.40;;
10801;SDS011;5453;50.852;7.102;2022-11-12T04:58:17;5.90;;;2.88;;
10801;SDS011;5453;50.852;7.102;2022-11-12T05:01:08;5.22;;;3.13;;
10801;SDS011;5453;50.852;7.102;2022-11-12T05:03:58;4.97;;;2.63;;
10801;SDS011;5453;50.852;7.102;2022-11-12T05:06:48;6.68;;;3.28;;
10801;SDS011;5453;50.852;7.102;2022-11-12T05:09:44;7.60;;;3.33;;
10801;SDS011;5453;50.852;7.102;2022-11-12T05:12:34;5.35;;;3.05;;
10801;SDS011;5453;50.852;7.102;2022-11-12T05:15:25;7.28;;;3.58;;
10801;SDS011;5453;50.852;7.102;2022-11-12T05:18:16;6.10;;;3.17;;
10801;SDS011;5453;50.852;7.102;2022-11-12T05:21:06;7.28;;;3.45;;
10801;SDS011;5453;50.852;7.102;2022-11-12T05:24:11;6.78;;;3.00;;
10801;SDS011;5453;50.852;7.102;2022-11-12T05:27:04;5.55;;;2.85;;
10801;SDS011;5453;50.852;7.102;2022-11-12T05:29:58;5.85;;;3.05;;
10801;SDS011;5453;50.852;7.102;2022-11-12T05:32:49;6.93;;;3.05;;
10801;SDS011;5453;50.852;7.102;2022-11-12T05:35:39;5.40;;;3.22;;
10801;SDS011;5453;50.852;7.102;2022-11-12T05:38:30;7.38;;;2.92;;
10801;SDS011;5453;50.852;7.102;2022-11-12T05:41:20;7.22;;;3.33;;
10801;SDS011;5453;50.852;7.102;2022-11-12T05:44:12;7.78;;;3.60;;
10801;SDS011;5453;50.852;7.102;2022-11-12T05:47:02;7.53;;;4.05;;
10801;SDS011;5453;50.852;7.102;2022-11-12T05:49:53;8.40;;;3.53;;
10801;SDS011;5453;50.852;7.102;2022-11-12T05:52:44;7.60;;;3.78;;
10801;SDS011;5453;50.852;7.102;2022-11-12T05:55:34;8.10;;;4.00;;
10801;SDS011;5453;50.852;7.102;2022-11-12T05:58:25;8.15;;;4.13;;
10801;SDS011;5453;50.852;7.102;2022-11-12T06:01:16;7.63;;;3.63;;
10801;SDS011;5453;50.852;7.102;2022-11-12T06:04:08;6.95;;;3.47;;
10801;SDS011;5453;50.852;7.102;2022-11-12T06:06:59;8.30;;;3.53;;
10801;SDS011;5453;50.852;7.102;2022-11-12T06:09:51;6.13;;;3.10;;
10801;SDS011;5453;50.852;7.102;2022-11-12T06:12:42;7.50;;;4.03;;
10801;SDS011;5453;50.852;7.102;2022-11-12T06:15:32;9.35;;;3.78;;
10801;SDS011;5453;50.852;7.102;2022-11-12T06:18:24;7.28;;;3.60;;
10801;SDS011;5453;50.852;7.102;2022-11-12T06:21:14;7.78;;;3.75;;
10801;SDS011;5453;50.852;7.102;2022-11-12T06:24:09;7.38;;;3.40;;
10801;SDS011;5453;50.852;7.102;2022-11-12T06:27:00;6.97;;;3.42;;
10801;SDS011;5453;50.852;7.102;2022-11-12T06:29:51;6.05;;;3.30;;
10801;SDS011;5453;50.852;7.102;2022-11-12T06:32:44;6.30;;;3.15;;
10801;SDS011;5453;50.852;7.102;2022-11-12T06:35:36;7.03;;;3.88;;
10801;SDS011;5453;50.852;7.102;2022-11-12T06:38:27;6.75;;;3.15;;
10801;SDS011;5453;50.852;7.102;2022-11-12T06:41:18;6.80;;;3.20;;
10801;SDS011;5453;50.852;7.102;2022-11-12T06:44:09;6.40;;;3.30;;
10801;SDS011;5453;50.852;7.102;2022-11-12T06:47:00;6.25;;;3.38;;
10801;SDS011;5453;50.852;7.102;2022-11-12T06:49:51;7.75;;;4.10;;
10801;SDS011;5453;50.852;7.102;2022-11-12T06:52:43;6.03;;;3.35;;
10801;SDS011;5453;50.852;7.102;2022-11-12T06:55:33;7.43;;;3.40;;
10801;SDS011;5453;50.852;7.102;2022-11-12T06:58:24;8.23;;;3.63;;
10801;SDS011;5453;50.852;7.102;2022-11-12T07:01:15;7.72;;;3.97;;
10801;SDS011;5453;50.852;7.102;2022-11-12T07:04:06;8.07;;;4.03;;
10801;SDS011;5453;50.852;7.102;2022-11-12T07:06:57;7.65;;;4.10;;
10801;SDS011;5453;50.852;7.102;2022-11-12T07:09:49;9.80;;;4.57;;
10801;SDS011;5453;50.852;7.102;2022-11-12T07:12:40;8.68;;;5.85;;
10801;SDS011;5453;50.852;7.102;2022-11-12T07:15:31;8.00;;;4.80;;
10801;SDS011;5453;50.852;7.102;2022-11-12T07:18:22;8.70;;;4.55;;
10801;SDS011;5453;50.852;7.102;2022-11-12T07:21:13;25.08;;;10.52;;
10801;SDS011;5453;50.852;7.102;2022-11-12T07:24:09;14.88;;;7.80;;
10801;SDS011;5453;50.852;7.102;2022-11-12T07:27:01;13.00;;;7.55;;
10801;SDS011;5453;50.852;7.102;2022-11-12T07:29:52;13.85;;;7.55;;
10801;SDS011;5453;50.852;7.102;2022-11-12T07:32:43;11.48;;;6.75;;
10801;SDS011;5453;50.852;7.102;2022-11-12T07:35:34;14.43;;;7.47;;
10801;SDS011;5453;50.852;7.102;2022-11-12T07:38:26;24.65;;;11.55;;
10801;SDS011;5453;50.852;7.102;2022-11-12T07:41:18;21.95;;;10.30;;
10801;SDS011;5453;50.852;7.102;2022-11-12T07:44:13;13.13;;;7.07;;
10801;SDS011;5453;50.852;7.102;2022-11-12T07:49:57;12.98;;;7.10;;
10801;SDS011;5453;50.852;7.102;2022-11-12T07:52:48;12.68;;;5.45;;
10801;SDS011;5453;50.852;7.102;2022-11-12T07:55:39;12.00;;;5.80;;
10801;SDS011;5453;50.852;7.102;2022-11-12T07:58:30;17.25;;;7.25;;
10801;SDS011;5453;50.852;7.102;2022-11-12T08:01:24;16.00;;;7.10;;
10801;SDS011;5453;50.852;7.102;2022-11-12T08:04:19;9.80;;;5.22;;
10801;SDS011;5453;50.852;7.102;2022-11-12T08:07:12;10.05;;;4.53;;
10801;SDS011;5453;50.852;7.102;2022-11-12T08:10:04;12.63;;;5.55;;
10801;SDS011;5453;50.852;7.102;2022-11-12T08:12:56;9.80;;;4.47;;
10801;SDS011;5453;50.852;7.102;2022-11-12T08:15:47;11.05;;;5.75;;
10801;SDS011;5453;50.852;7.102;2022-11-12T08:18:39;10.50;;;5.05;;
10801;SDS011;5453;50.852;7.102;2022-11-12T08:21:29;9.77;;;4.85;;
10801;SDS011;5453;50.852;7.102;2022-11-12T08:24:19;10.07;;;5.28;;
10801;SDS011;5453;50.852;7.102;2022-11-12T08:27:11;8.23;;;4.60;;
10801;SDS011;5453;50.852;7.102;2022-11-12T08:30:02;7.93;;;3.58;;
10801;SDS011;5453;50.852;7.102;2022-11-12T08:32:57;9.65;;;4.38;;
10801;SDS011;5453;50.852;7.102;2022-11-12T08:35:51;11.77;;;5.50;;
10801;SDS011;5453;50.852;7.102;2022-11-12T08:38:43;7.05;;;4.00;;
10801;SDS011;5453;50.852;7.102;2022-11-12T08:41:34;7.30;;;3.28;;
10801;SDS011;5453;50.852;7.102;2022-11-12T08:44:25;7.22;;;3.50;;
10801;SDS011;5453;50.852;7.102;2022-11-12T08:47:16;8.05;;;4.15;;
10801;SDS011;5453;50.852;7.102;2022-11-12T08:50:06;12.73;;;6.75;;
10801;SDS011;5453;50.852;7.102;2022-11-12T08:53:00;9.15;;;4.32;;
10801;SDS011;5453;50.852;7.102;2022-11-12T08:55:52;7.05;;;3.90;;
10801;SDS011;5453;50.852;7.102;2022-11-12T08:58:43;6.93;;;3.70;;
10801;SDS011;5453;50.852;7.102;2022-11-12T09:01:34;6.30;;;3.45;;
10801;SDS011;5453;50.852;7.102;2022-11-12T09:04:25;6.45;;;3.13;;
10801;SDS011;5453;50.852;7.102;2022-11-12T09:07:16;7.57;;;3.60;;
10801;SDS011;5453;50.852;7.102;2022-11-12T09:10:08;7.13;;;3.88;;
10801;SDS011;5453;50.852;7.102;2022-11-12T09:12:58;6.38;;;3.13;;
10801;SDS011;5453;50.852;7.102;2022-11-12T09:15:50;7.45;;;4.10;;
10801;SDS011;5453;50.852;7.102;2022-11-12T09:18:41;5.95;;;3.50;;
10801;SDS011;5453;50.852;7.102;2022-11-12T09:21:31;8.95;;;4.32;;
10801;SDS011;5453;50.852;7.102;2022-11-12T09:24:22;7.32;;;3.53;;
10801;SDS011;5453;50.852;7.102;2022-11-12T09:27:14;7.00;;;3.35;;
10801;SDS011;5453;50.852;7.102;2022-11-12T09:30:05;6.90;;;3.05;;
10801;SDS011;5453;50.852;7.102;2022-11-12T09:32:56;4.85;;;2.60;;
10801;SDS011;5453;50.852;7.102;2022-11-12T09:35:47;5.70;;;3.63;;
10801;SDS011;5453;50.852;7.102;2022-11-12T09:38:39;5.28;;;2.95;;
10801;SDS011;5453;50.852;7.102;2022-11-12T09:41:31;7.03;;;4.30;;
10801;SDS011;5453;50.852;7.102;2022-11-12T09:44:26;6.82;;;3.28;;
10801;SDS011;5453;50.852;7.102;2022-11-12T09:47:19;6.38;;;3.10;;
10801;SDS011;5453;50.852;7.102;2022-11-12T09:50:17;7.13;;;3.40;;
10801;SDS011;5453;50.852;7.102;2022-11-12T09:53:14;6.72;;;3.40;;
10801;SDS011;5453;50.852;7.102;2022-11-12T09:56:09;6.60;;;2.97;;
10801;SDS011;5453;50.852;7.102;2022-11-12T09:59:02;5.43;;;2.92;;
10801;SDS011;5453;50.852;7.102;2022-11-12T10:02:01;5.55;;;2.72;;
10801;SDS011;5453;50.852;7.102;2022-11-12T10:05:16;7.18;;;3.50;;
10801;SDS011;5453;50.852;7.102;2022-11-12T10:08:25;8.20;;;4.28;;
10801;SDS011;5453;50.852;7.102;2022-11-12T10:11:36;8.23;;;3.92;;
10801;SDS011;5453;50.852;7.102;2022-11-12T10:15:09;6.95;;;4.18;;
10801;SDS011;5453;50.852;7.102;2022-11-12T10:22:15;7.60;;;3.72;;
10801;SDS011;5453;50.852;7.102;2022-11-12T10:25:16;7.65;;;3.28;;
10801;SDS011;5453;50.852;7.102;2022-11-12T10:28:15;8.10;;;4.57;;
10801;SDS011;5453;50.852;7.102;2022-11-12T10:31:17;6.85;;;3.85;;
10801;SDS011;5453;50.852;7.102;2022-11-12T10:34:13;7.00;;;3.63;;
10801;SDS011;5453;50.852;7.102;2022-11-12T10:37:09;6.53;;;3.55;;
10801;SDS011;5453;50.852;7.102;2022-11-12T10:40:16;7.05;;;3.60;;
10801;SDS011;5453;50.852;7.102;2022-11-12T10:43:19;6.97;;;3.40;;
10801;SDS011;5453;50.852;7.102;2022-11-12T10:46:13;5.78;;;2.92;;
10801;SDS011;5453;50.852;7.102;2022-11-12T10:49:22;5.07;;;2.85;;
10801;SDS011;5453;50.852;7.102;2022-11-12T10:52:19;4.60;;;2.60;;
10801;SDS011;5453;50.852;7.102;2022-11-12T10:55:16;5.07;;;2.50;;
10801;SDS011;5453;50.852;7.102;2022-11-12T10:58:13;5.18;;;3.13;;
10801;SDS011;5453;50.852;7.102;2022-11-12T11:01:11;8.13;;;3.85;;
10801;SDS011;5453;50.852;7.102;2022-11-12T11:04:08;7.88;;;5.15;;
10801;SDS011;5453;50.852;7.102;2022-11-12T11:07:17;5.47;;;3.97;;
10801;SDS011;5453;50.852;7.102;2022-11-12T11:10:22;6.60;;;3.17;;
10801;SDS011;5453;50.852;7.102;2022-11-12T11:13:19;8.18;;;3.25;;
10801;SDS011;5453;50.852;7.102;2022-11-12T11:16:11;4.80;;;2.80;;
10801;SDS011;5453;50.852;7.102;2022-11-12T11:19:04;6.05;;;3.30;;
10801;SDS011;5453;50.852;7.102;2022-11-12T11:21:56;4.70;;;2.42;;
10801;SDS011;5453;50.852;7.102;2022-11-12T11:25:11;5.00;;;2.60;;
10801;SDS011;5453;50.852;7.102;2022-11-12T11:28:12;6.72;;;2.55;;
10801;SDS011;5453;50.852;7.102;2022-11-12T11:31:12;5.82;;;3.13;;
10801;SDS011;5453;50.852;7.102;2022-11-12T11:34:15;5.47;;;3.30;;
10801;SDS011;5453;50.852;7.102;2022-11-12T11:37:23;6.75;;;2.88;;
10801;SDS011;5453;50.852;7.102;2022-11-12T11:40:22;4.82;;;2.65;;
10801;SDS011;5453;50.852;7.102;2022-11-12T11:43:25;5.25;;;3.10;;
10801;SDS011;5453;50.852;7.102;2022-11-12T11:46:31;8.02;;;4.57;;
10801;SDS011;5453;50.852;7.102;2022-11-12T11:49:40;6.43;;;3.00;;
10801;SDS011;5453;50.852;7.102;2022-11-12T11:53:12;7.03;;;3.40;;
10801;SDS011;5453;50.852;7.102;2022-11-12T11:56:13;6.03;;;3.38;;
10801;SDS011;5453;50.852;7.102;2022-11-12T11:59:17;5.90;;;3.10;;
10801;SDS011;5453;50.852;7.102;2022-11-12T12:02:22;5.90;;;3.20;;
10801;SDS011;5453;50.852;7.102;2022-11-12T12:05:38;6.18;;;3.10;;
10801;SDS011;5453;50.852;7.102;2022-11-12T12:08:35;5.45;;;2.70;;
10801;SDS011;5453;50.852;7.102;2022-11-12T12:11:47;6.80;;;2.78;;
10801;SDS011;5453;50.852;7.102;2022-11-12T12:14:47;4.15;;;2.42;;
10801;SDS011;5453;50.852;7.102;2022-11-12T12:17:50;4.82;;;2.72;;
10801;SDS011;5453;50.852;7.102;2022-11-12T12:20:51;5.35;;;3.05;;
10801;SDS011;5453;50.852;7.102;2022-11-12T12:23:49;6.95;;;3.17;;
10801;SDS011;5453;50.852;7.102;2022-11-12T12:26:46;5.95;;;2.78;;
10801;SDS011;5453;50.852;7.102;2022-11-12T12:29:42;6.68;;;3.20;;
10801;SDS011;5453;50.852;7.102;2022-11-12T12:32:39;7.43;;;3.15;;
10801;SDS011;5453;50.852;7.102;2022-11-12T12:35:35;7.38;;;3.60;;
10801;SDS011;5453;50.852;7.102;2022-11-12T12:38:42;6.05;;;3.20;;
10801;SDS011;5453;50.852;7.102;2022-11-12T12:41:39;6.25;;;2.88;;
10801;SDS011;5453;50.852;7.102;2022-11-12T12:44:39;5.05;;;2.80;;
10801;SDS011;5453;50.852;7.102;2022-11-12T12:47:52;4.70;;;2.97;;
10801;SDS011;5453;50.852;7.102;2022-11-12T12:50:44;7.72;;;4.00;;
10801;SDS011;5453;50.852;7.102;2022-11-12T12:53:36;7.57;;;3.63;;
10801;SDS011;5453;50.852;7.102;2022-11-12T12:56:47;5.40;;;3.38;;
10801;SDS011;5453;50.852;7.102;2022-11-12T12:59:38;4.57;;;3.08;;
10801;SDS011;5453;50.852;7.102;2022-11-12T13:02:28;4.13;;;2.42;;
10801;SDS011;5453;50.852;7.102;2022-11-12T13:05:28;4.82;;;2.92;;
10801;SDS011;5453;50.852;7.102;2022-11-12T13:08:21;4.47;;;2.50;;
10801;SDS011;5453;50.852;7.102;2022-11-12T13:18:06;3.00;;;2.00;;
10801;SDS011;5453;50.852;7.102;2022-11-12T13:21:08;6.82;;;2.85;;
10801;SDS011;5453;50.852;7.102;2022-11-12T13:24:00;5.25;;;2.20;;
10801;SDS011;5453;50.852;7.102;2022-11-12T13:26:59;4.93;;;2.65;;
10801;SDS011;5453;50.852;7.102;2022-11-12T13:29:50;5.10;;;2.47;;
10801;SDS011;5453;50.852;7.102;2022-11-12T13:32:41;5.45;;;2.20;;
10801;SDS011;5453;50.852;7.102;2022-11-12T13:35:33;4.47;;;2.38;;
10801;SDS011;5453;50.852;7.102;2022-11-12T13:38:24;3.63;;;2.13;;
10801;SDS011;5453;50.852;7.102;2022-11-12T13:41:16;5.32;;;2.63;;
10801;SDS011;5453;50.852;7.102;2022-11-12T13:44:33;3.65;;;2.08;;
10801;SDS011;5453;50.852;7.102;2022-11-12T13:47:24;7.45;;;2.38;;
10801;SDS011;5453;50.852;7.102;2022-11-12T13:50:18;3.78;;;1.83;;
10801;SDS011;5453;50.852;7.102;2022-11-12T13:53:11;6.10;;;2.35;;
10801;SDS011;5453;50.852;7.102;2022-11-12T13:56:10;4.63;;;2.95;;
10801;SDS011;5453;50.852;7.102;2022-11-12T13:59:12;9.48;;;4.82;;
10801;SDS011;5453;50.852;7.102;2022-11-12T14:02:12;7.00;;;4.15;;
10801;SDS011;5453;50.852;7.102;2022-11-12T14:05:11;5.97;;;2.40;;
10801;SDS011;5453;50.852;7.102;2022-11-12T14:08:20;18.30;;;8.07;;
10801;SDS011;5453;50.852;7.102;2022-11-12T14:11:30;11.57;;;5.88;;
10801;SDS011;5453;50.852;7.102;2022-11-12T14:14:49;8.80;;;3.70;;
10801;SDS011;5453;50.852;7.102;2022-11-12T14:18:00;18.02;;;9.07;;
10801;SDS011;5453;50.852;7.102;2022-11-12T14:21:03;41.55;;;20.45;;
10801;SDS011;5453;50.852;7.102;2022-11-12T14:23:55;13.95;;;7.13;;
10801;SDS011;5453;50.852;7.102;2022-11-12T14:26:46;11.57;;;5.85;;
10801;SDS011;5453;50.852;7.102;2022-11-12T14:29:36;5.65;;;3.35;;
10801;SDS011;5453;50.852;7.102;2022-11-12T14:32:27;4.80;;;2.67;;
10801;SDS011;5453;50.852;7.102;2022-11-12T14:35:31;4.00;;;2.42;;
10801;SDS011;5453;50.852;7.102;2022-11-12T14:38:25;2.95;;;2.00;;
10801;SDS011;5453;50.852;7.102;2022-11-12T14:41:19;2.78;;;1.77;;
10801;SDS011;5453;50.852;7.102;2022-11-12T14:44:15;2.78;;;1.60;;
10801;SDS011;5453;50.852;7.102;2022-11-12T14:47:10;4.97;;;2.72;;
10801;SDS011;5453;50.852;7.102;2022-11-12T14:50:01;5.88;;;2.85;;
10801;SDS011;5453;50.852;7.102;2022-11-12T14:52:56;7.13;;;3.35;;
10801;SDS011;5453;50.852;7.102;2022-11-12T14:55:51;3.72;;;2.60;;
10801;SDS011;5453;50.852;7.102;2022-11-12T14:58:43;4.03;;;2.35;;
10801;SDS011;5453;50.852;7.102;2022-11-12T15:01:34;127.03;;;60.88;;
10801;SDS011;5453;50.852;7.102;2022-11-12T15:04:33;125.85;;;61.60;;
10801;SDS011;5453;50.852;7.102;2022-11-12T15:07:27;103.53;;;47.15;;
10801;SDS011;5453;50.852;7.102;2022-11-12T15:10:29;52.03;;;24.48;;
10801;SDS011;5453;50.852;7.102;2022-11-12T15:13:23;8.70;;;4.05;;
10801;SDS011;5453;50.852;7.102;2022-11-12T15:16:17;3.35;;;1.80;;
10801;SDS011;5453;50.852;7.102;2022-11-12T15:19:20;3.95;;;2.00;;
10801;SDS011;5453;50.852;7.102;2022-11-12T15:22:17;2.70;;;1.67;;
10801;SDS011;5453;50.852;7.102;2022-11-12T15:25:11;14.80;;;6.75;;
10801;SDS011;5453;50.852;7.102;2022-11-12T15:28:12;15.18;;;6.22;;
10801;SDS011;5453;50.852;7.102;2022-11-12T15:31:15;8.48;;;3.58;;
10801;SDS011;5453;50.852;7.102;2022-11-12T15:37:39;5.32;;;2.40;;
10801;SDS011;5453;50.852;7.102;2022-11-12T15:40:31;8.55;;;3.33;;
10801;SDS011;5453;50.852;7.102;2022-11-12T15:43:34;5.88;;;2.28;;
10801;SDS011;5453;50.852;7.102;2022-11-12T15:46:30;4.55;;;2.35;;
10801;SDS011;5453;50.852;7.102;2022-11-12T15:49:20;4.32;;;2.13;;
10801;SDS011;5453;50.852;7.102;2022-11-12T15:52:11;4.68;;;2.50;;
10801;SDS011;5453;50.852;7.102;2022-11-12T15:55:02;3.15;;;2.17;;
10801;SDS011;5453;50.852;7.102;2022-11-12T15:57:53;4.30;;;2.25;;
10801;SDS011;5453;50.852;7.102;2022-11-12T16:00:45;3.92;;;2.20;;
10801;SDS011;5453;50.852;7.102;2022-11-12T16:03:36;6.78;;;3.45;;
10801;SDS011;5453;50.852;7.102;2022-11-12T16:06:26;9.57;;;4.60;;
10801;SDS011;5453;50.852;7.102;2022-11-12T16:09:17;8.93;;;4.00;;
10801;SDS011;5453;50.852;7.102;2022-11-12T16:12:08;5.32;;;2.65;;
10801;SDS011;5453;50.852;7.102;2022-11-12T16:15:01;5.80;;;2.50;;
10801;SDS011;5453;50.852;7.102;2022-11-12T16:17:55;4.35;;;2.58;;
10801;SDS011;5453;50.852;7.102;2022-11-12T16:20:48;3.10;;;1.92;;
10801;SDS011;5453;50.852;7.102;2022-11-12T16:23:39;3.05;;;2.05;;
10801;SDS011;5453;50.852;7.102;2022-11-12T16:26:29;2.35;;;1.50;;
10801;SDS011;5453;50.852;7.102;2022-11-12T16:29:21;3.70;;;1.73;;
10801;SDS011;5453;50.852;7.102;2022-11-12T16:32:12;4.90;;;2.50;;
10801;SDS011;5453;50.852;7.102;2022-11-12T16:35:05;5.65;;;2.15;;
10801;SDS011;5453;50.852;7.102;2022-11-12T16:37:57;4.65;;;2.10;;
10801;SDS011;5453;50.852;7.102;2022-11-12T16:40:47;3.80;;;2.00;;
10801;SDS011;5453;50.852;7.102;2022-11-12T16:43:38;3.15;;;1.77;;
10801;SDS011;5453;50.852;7.102;2022-11-12T16:46:29;4.13;;;2.15;;
10801;SDS011;5453;50.852;7.102;2022-11-12T16:49:27;3.88;;;2.33;;
10801;SDS011;5453;50.852;7.102;2022-11-12T16:52:19;4.90;;;2.40;;
10801;SDS011;5453;50.852;7.102;2022-11-12T16:55:10;4.18;;;2.30;;
10801;SDS011;5453;50.852;7.102;2022-11-12T16:58:00;4.65;;;2.50;;
10801;SDS011;5453;50.852;7.102;2022-11-12T17:00:51;4.82;;;2.22;;
10801;SDS011;5453;50.852;7.102;2022-11-12T17:03:43;4.47;;;2.08;;
10801;SDS011;5453;50.852;7.102;2022-11-12T17:06:34;3.50;;;1.90;;
10801;SDS011;5453;50.852;7.102;2022-11-12T17:09:27;2.72;;;1.70;;
10801;SDS011;5453;50.852;7.102;2022-11-12T17:12:18;2.80;;;1.85;;
10801;SDS011;5453;50.852;7.102;2022-11-12T17:15:09;2.42;;;1.60;;
10801;SDS011;5453;50.852;7.102;2022-11-12T17:17:59;2.10;;;1.33;;
10801;SDS011;5453;50.852;7.102;2022-11-12T17:20:51;3.30;;;1.65;;
10801;SDS011;5453;50.852;7.102;2022-11-12T17:23:42;3.25;;;1.80;;
10801;SDS011;5453;50.852;7.102;2022-11-12T17:26:34;12.05;;;5.00;;
10801;SDS011;5453;50.852;7.102;2022-11-12T17:29:25;5.60;;;2.95;;
10801;SDS011;5453;50.852;7.102;2022-11-12T17:32:16;5.90;;;2.83;;
10801;SDS011;5453;50.852;7.102;2022-11-12T17:35:06;3.67;;;2.30;;
10801;SDS011;5453;50.852;7.102;2022-11-12T17:37:57;3.95;;;2.40;;
10801;SDS011;5453;50.852;7.102;2022-11-12T17:40:48;3.95;;;2.22;;
10801;SDS011;5453;50.852;7.102;2022-11-12T17:43:52;3.85;;;2.03;;
10801;SDS011;5453;50.852;7.102;2022-11-12T17:46:44;4.97;;;2.40;;
10801;SDS011;5453;50.852;7.102;2022-11-12T17:49:35;4.28;;;2.42;;
10801;SDS011;5453;50.852;7.102;2022-11-12T17:52:26;2.92;;;1.98;;
10801;SDS011;5453;50.852;7.102;2022-11-12T17:55:16;3.75;;;2.25;;
10801;SDS011;5453;50.852;7.102;2022-11-12T17:58:08;3.85;;;2.47;;
10801;SDS011;5453;50.852;7.102;2022-11-12T18:01:05;5.25;;;2.83;;
10801;SDS011;5453;50.852;7.102;2022-11-12T18:03:58;7.32;;;3.00;;